Latest Coastal Weather Observations for Cape Byron

IDN60701

Issued at 12:51 pm EST Friday 24 May 2019 (issued every 10 minutes, with the page automatically refreshed every 10 minutes)

About coastal observations | Map of coastal stations | Coastal observations for NSW | Marine services | Other Formats
Station Details ID: 058216 Name: CAPE BYRON AWS Lat: -28.64 Lon: 153.64 Height: 95.0 m
Data from the previous 72 hours. | See also: Recent months at Cape Byron
Date/Time
EST
Wind Sea
Height
m
Swell Vis
km
Cloud Weather Temp
°C
Press
hPa
Rain since
9am
mm
Dir  Spd
kts
Gust
kts
Height
m
Period
s
Dir
24/12:30pm SSE 8 12 - - - - - - - 20.3 1022.8 0.0
24/12:00pm S 8 11 - - - - - - - 20.3 1023.3 0.0
24/11:30am S 10 12 - - - - - - - 19.9 1023.8 0.0
24/11:00am SSW 8 11 - - - - - - - 19.8 1024.3 0.0
24/10:30am SSW 9 13 - - - - - - - 19.3 1024.6 0.0
24/10:00am SW 10 13 - - - - - - - 19.1 1025.1 0.0
24/09:30am SW 9 12 - - - - - - - 18.1 1025.3 0.0
24/09:00am SW 7 10 - - - - - - - 17.7 1025.0 1.2
24/08:30am WSW 8 11 - - - - - - - 16.9 1024.8 1.2
24/08:00am WSW 11 14 - - - - - - - 16.3 1024.8 1.2
24/07:30am WSW 12 16 - - - - - - - 15.7 1024.7 1.2
24/07:00am WSW 12 15 - - - - - - - 15.4 1024.5 1.2
24/06:30am WSW 13 16 - - - - - - - 15.3 1024.4 1.2
24/06:00am SW 15 18 - - - - - - - 15.3 1024.0 1.2
24/05:30am SW 14 17 - - - - - - - 15.2 1023.9 1.2
24/05:00am SW 13 17 - - - - - - - 15.2 1023.8 1.2
24/04:30am WSW 12 16 - - - - - - - 15.5 1023.6 1.2
24/04:00am WSW 11 14 - - - - - - - 15.9 1023.4 1.2
24/03:30am NNW 3 5 - - - - - - - 17.1 1023.5 1.2
24/03:00am NNW 5 7 - - - - - - - 16.7 1023.8 1.2
24/02:30am SSW 6 8 - - - - - - - 16.8 1024.2 1.2
24/02:00am S 8 10 - - - - - - - 16.8 1024.2 1.2
24/01:30am SW 8 10 - - - - - - - 16.2 1024.4 1.2
24/01:00am SSW 11 15 - - - - - - - 16.5 1024.8 1.2
24/12:30am SW 11 13 - - - - - - - 15.9 1025.0 1.2
24/12:00am WSW 12 15 - - - - - - - 16.1 1025.2 1.2
 
Date/Time
EST
Wind Sea
Height
m
Swell Vis
km
Cloud Weather Temp
°C
Press
hPa
Rain since
9am
mm
Dir  Spd
kts
Gust
kts
Height
m
Period
s
Dir
23/11:30pm WSW 10 13 - - - - - - - 15.8 1025.4 1.2
23/11:00pm W 11 14 - - - - - - - 16.2 1025.4 1.2
23/10:30pm WSW 12 15 - - - - - - - 16.2 1025.6 1.2
23/10:00pm SW 9 11 - - - - - - - 16.4 1025.7 1.2
23/09:30pm W 5 8 - - - - - - - 17.2 1025.9 1.0
23/09:00pm SE 13 18 - - - - - - Rain 17.7 1026.0 0.8
23/08:59pm SE 13 18 - - - - - - - 17.8 1025.9 0.8
23/08:30pm SW 6 8 - - - - - - - 17.4 1025.7 0.6
23/08:00pm SW 8 11 - - - - - - - 17.0 1025.9 0.6
23/07:30pm SW 8 11 - - - - - - - 17.3 1025.9 0.6
23/07:00pm NNE 6 9 - - - - - - - 18.4 1025.7 0.6
23/06:30pm ENE 8 11 - - - - - - - 18.1 1025.5 0.6
23/06:00pm E 9 13 - - - - - - Recent precip. 18.2 1025.2 0.6
23/05:30pm ESE 7 11 - - - - - - - 18.1 1025.4 0.6
23/05:00pm SSE 11 16 - - - - - - - 18.4 1025.1 0.2
23/04:30pm ENE 7 9 - - - - - - - 18.8 1025.0 0.2
23/04:00pm SSE 7 10 - - - - - - - 19.2 1025.1 0.0
23/03:30pm SE 13 17 - - - - - - - 19.5 1024.9 0.0
23/03:00pm SSW 11 15 - - - - - - - 20.1 1024.8 0.0
23/02:30pm SSW 11 14 - - - - - - - 20.0 1024.9 0.0
23/02:00pm SSW 10 13 - - - - - - - 20.0 1025.1 0.0
23/01:30pm S 12 14 - - - - - - - 20.1 1025.2 0.0
23/01:00pm SSE 9 14 - - - - - - - 20.0 1025.5 0.0
23/12:30pm S 9 13 - - - - - - - 20.0 1025.8 0.0
23/12:00pm S 9 13 - - - - - - - 20.5 1026.1 0.0
23/11:30am SSW 10 15 - - - - - - - 20.3 1026.4 0.0
23/11:00am SSW 8 12 - - - - - - - 20.1 1026.8 0.0
23/10:30am SW 10 12 - - - - - - - 19.3 1027.2 0.0
23/10:00am SW 11 15 - - - - - - - 18.7 1027.4 0.0
23/09:30am SW 12 16 - - - - - - - 17.9 1027.5 0.0
23/09:00am SW 12 17 - - - - - - - 17.9 1027.3 0.6
23/08:30am SW 11 15 - - - - - - - 16.9 1027.1 0.6
23/08:00am WSW 11 14 - - - - - - - 16.2 1026.9 0.6
23/07:30am WSW 12 15 - - - - - - - 15.6 1026.7 0.6
23/07:00am WSW 13 16 - - - - - - - 15.6 1026.5 0.6
23/06:30am WSW 13 15 - - - - - - - 15.8 1026.2 0.6
23/06:00am SW 11 13 - - - - - - Rain 15.6 1026.0 0.6
23/05:30am SW 12 15 - - - - - - - 15.8 1025.8 0.0
23/05:00am WSW 13 16 - - - - - - - 15.8 1025.6 0.0
23/04:30am WSW 13 15 - - - - - - - 16.0 1025.4 0.0
23/04:00am WSW 11 15 - - - - - - - 16.4 1025.5 0.0
23/03:30am SW 9 10 - - - - - - - 16.8 1025.5 0.0
23/03:00am SW 8 10 - - - - - - - 17.3 1025.8 0.0
23/02:30am SW 8 9 - - - - - - - 17.2 1025.8 0.0
23/02:00am SSW 6 7 - - - - - - - 17.8 1026.1 0.0
23/01:30am SSE 5 9 - - - - - - - 18.4 1026.2 0.0
23/01:00am ENE 5 8 - - - - - - - 19.7 1026.3 0.0
23/12:30am E 7 11 - - - - - - - 19.8 1026.4 0.0
23/12:00am E 8 13 - - - - - - - 19.7 1026.5 0.0
 
Date/Time
EST
Wind Sea
Height
m
Swell Vis
km
Cloud Weather Temp
°C
Press
hPa
Rain since
9am
mm
Dir  Spd
kts
Gust
kts
Height
m
Period
s
Dir
22/11:30pm E 9 13 - - - - - - - 19.7 1026.8 0.0
22/11:00pm E 10 13 - - - - - - - 19.7 1027.1 0.0
22/10:30pm E 11 15 - - - - - - - 19.7 1027.3 0.0
22/10:00pm E 10 13 - - - - - - - 19.7 1027.3 0.0
22/09:30pm E 11 14 - - - - - - - 19.7 1027.3 0.0
22/09:00pm E 11 13 - - - - - - - 19.8 1027.3 0.0
22/08:30pm E 10 14 - - - - - - - 19.5 1027.2 0.0
22/08:00pm ESE 11 14 - - - - - - - 19.9 1027.1 0.0
22/07:30pm ESE 11 13 - - - - - - - 20.0 1027.0 0.0
22/07:00pm ESE 12 15 - - - - - - - 20.1 1026.9 0.0
22/06:30pm SE 12 14 - - - - - - - 20.4 1026.7 0.0
22/06:00pm ESE 11 14 - - - - - - - 20.2 1026.6 0.0
22/05:30pm SE 11 13 - - - - - - - 20.3 1026.5 0.0
22/05:00pm ESE 11 14 - - - - - - - 20.4 1026.5 0.0
22/04:30pm ESE 11 13 - - - - - - - 20.4 1026.3 0.0
22/04:00pm S 9 11 - - - - - - - 20.8 1026.3 0.0
22/03:30pm S 10 13 - - - - - - - 21.0 1026.3 0.0
22/03:00pm S 10 12 - - - - - - - 21.2 1026.2 0.0
22/02:30pm S 11 13 - - - - - - - 21.3 1026.1 0.0
22/02:00pm S 11 14 - - - - - - - 21.2 1026.2 0.0
22/01:30pm SSE 9 12 - - - - - - - 21.5 1026.3 0.0
22/01:00pm S 10 11 - - - - - - - 21.3 1026.7 0.0
22/12:30pm S 10 12 - - - - - - - 21.3 1027.0 0.0
22/12:00pm S 9 11 - - - - - - - 21.5 1027.3 0.0
22/11:30am S 10 11 - - - - - - - 21.1 1027.9 0.0
22/11:00am SSW 8 10 - - - - - - - 21.2 1028.2 0.0
22/10:30am SSW 8 10 - - - - - - - 20.8 1028.4 0.0
22/10:00am SSW 7 8 - - - - - - - 20.5 1028.7 0.0
22/09:30am SSW 6 7 - - - - - - - 19.9 1028.7 0.0
22/09:00am SW 6 8 - - - - - - - 18.7 1028.4 0.0
22/08:30am SW 6 8 - - - - - - - 18.1 1028.1 0.0
22/08:00am SSW 7 8 - - - - - - - 17.2 1028.0 0.0
22/07:30am SW 7 8 - - - - - - - 16.7 1027.9 0.0
22/07:00am SW 8 10 - - - - - - - 17.1 1027.7 0.0
22/06:30am SW 8 10 - - - - - - - 17.1 1027.3 0.0
22/06:00am SW 7 10 - - - - - - - 17.3 1027.0 0.0
22/05:30am SW 7 8 - - - - - - - 17.5 1026.8 0.0
22/05:00am SW 6 7 - - - - - - - 17.9 1026.5 0.0
22/04:30am SSW 5 6 - - - - - - - 17.9 1026.4 0.0
22/04:00am SW 5 6 - - - - - - - 18.0 1026.4 0.0
22/03:30am S 4 5 - - - - - - - 18.7 1026.5 0.0
22/03:00am SW 4 4 - - - - - - - 19.1 1026.6 0.0
22/02:30am CALM 0 4 - - - - - - - 19.4 1026.6 0.0
22/02:00am CALM 0 2 - - - - - - - 19.3 1026.4 0.0
22/01:30am NNW 3 4 - - - - - - - 19.4 1026.6 0.0
22/01:00am NW 2 3 - - - - - - - 19.0 1026.7 0.0
22/12:30am NW 3 5 - - - - - - - 18.8 1026.8 0.0
22/12:00am NW 3 5 - - - - - - - 18.8 1026.9 0.0
 
Date/Time
EST
Wind Sea
Height
m
Swell Vis
km
Cloud Weather Temp
°C
Press
hPa
Rain since
9am
mm
Dir  Spd
kts
Gust
kts
Height
m
Period
s
Dir
21/11:30pm NNW 4 6 - - - - - - - 19.1 1027.0 0.0
21/11:00pm NE 6 7 - - - - - - - 19.5 1027.1 0.0
21/10:30pm NE 4 6 - - - - - - - 19.3 1027.1 0.0
21/10:00pm NNE 4 5 - - - - - - - 19.4 1027.0 0.0
21/09:30pm N 4 5 - - - - - - - 19.2 1027.1 0.0
21/09:00pm ENE 5 7 - - - - - - - 19.6 1027.0 0.0
21/08:30pm E 5 8 - - - - - - - 19.5 1026.8 0.0
21/08:00pm ESE 4 6 - - - - - - - 19.6 1026.6 0.0
21/07:30pm E 4 7 - - - - - - - 19.7 1026.4 0.0
21/07:00pm E 6 8 - - - - - - - 19.9 1026.2 0.0
21/06:30pm E 5 8 - - - - - - - 19.8 1026.0 0.0
21/06:00pm E 6 9 - - - - - - - 19.7 1025.7 0.0
21/05:30pm E 7 9 - - - - - - - 19.7 1025.4 0.0
21/05:00pm E 7 8 - - - - - - - 20.0 1025.2 0.0
21/04:30pm E 7 9 - - - - - - - 20.3 1025.0 0.0
21/04:00pm E 7 9 - - - - - - - 21.4 1024.9 0.0
21/03:30pm E 6 8 - - - - - - - 21.8 1024.8 0.0
21/03:00pm E 8 10 - - - - - - - 22.5 1024.7 0.0
21/02:30pm E 8 9 - - - - - - - 22.9 1024.7 0.0
21/02:00pm E 8 9 - - - - - - - 22.7 1024.9 0.0
21/01:30pm E 7 9 - - - - - - - 22.3 1025.1 0.0
21/01:00pm E 6 8 - - - - - - - 22.4 1025.5 0.0

Other formats

Comma delimited format used in spreadsheet applications
http://www.bom.gov.au/fwo/IDN60701/IDN60701.94599.axf

JavaScript Object Notation format (JSON) in row-major order
http://www.bom.gov.au/fwo/IDN60701/IDN60701.94599.json

Data quality

Most of these data are generated automatically and are frequently updated. Quality checks on data are not normally performed. It is possible for incorrect values to appear. Refer to information at About Latest Weather Observations and please check the disclaimer before using these data.